Time;durP1;ratioP1;P1;durP2;ratioP2;P2;SDS_P1;SDS_P2;PMS_P1;PMS_P2;Temp;Humidity;BMP_temperature;BMP_pressure;BME280_temperature;BME280_humidity;BME280_pressure;Samples;Min_cycle;Max_cycle;Signal;HPM_P1;HPM_P2
2023/05/19 00:01:55;;;;;;;3.50;3.20;;;;;;;18.33;51.81;102611.78;6124826;23;20009;-55
2023/05/19 00:04:21;;;;;;;3.35;2.95;;;;;;;18.30;51.59;102615.56;6124512;23;20002;-55
2023/05/19 00:06:50;;;;;;;3.67;3.10;;;;;;;18.31;51.75;102617.28;6124796;23;20014;-55
2023/05/19 00:09:16;;;;;;;4.45;3.15;;;;;;;18.31;51.50;102609.19;6098770;23;20053;-55
2023/05/19 00:11:42;;;;;;;4.53;3.03;;;;;;;18.31;51.67;102611.88;6124463;23;20088;-55
2023/05/19 00:14:08;;;;;;;3.63;2.63;;;;;;;18.29;51.70;102610.25;6124694;23;20081;-55
2023/05/19 00:16:35;;;;;;;4.28;3.10;;;;;;;18.29;51.44;102613.81;6125229;23;20006;-55
2023/05/19 00:19:02;;;;;;;5.15;3.05;;;;;;;18.29;51.53;102607.56;6124771;23;20005;-55
2023/05/19 00:21:28;;;;;;;2.90;2.60;;;;;;;18.30;51.42;102606.63;6124652;23;20001;-55
2023/05/19 00:23:54;;;;;;;3.72;3.15;;;;;;;18.29;51.37;102608.41;6124507;23;20026;-55
2023/05/19 00:26:21;;;;;;;3.85;3.00;;;;;;;18.28;51.61;102601.31;6124581;23;20006;-55
2023/05/19 00:28:47;;;;;;;2.75;2.53;;;;;;;18.27;51.45;102596.03;6124726;23;20085;-55
2023/05/19 00:31:12;;;;;;;3.47;2.80;;;;;;;18.27;51.30;102598.72;6124507;23;20520;-55
2023/05/19 00:33:37;;;;;;;6.03;2.53;;;;;;;18.26;51.33;102588.88;6124364;23;20006;-55
2023/05/19 00:36:03;;;;;;;3.15;2.58;;;;;;;18.26;51.26;102587.09;6125052;23;20075;-55
2023/05/19 00:38:33;;;;;;;3.58;3.00;;;;;;;18.25;51.21;102579.94;6124477;23;20006;-55
2023/05/19 00:41:00;;;;;;;6.22;2.97;;;;;;;18.25;51.38;102582.63;6124489;23;20038;-55
2023/05/19 00:43:25;;;;;;;3.78;2.90;;;;;;;18.25;51.14;102585.34;6124532;23;20326;-55
2023/05/19 00:45:51;;;;;;;2.75;2.50;;;;;;;18.24;50.96;102580.03;6124504;23;20014;-55
2023/05/19 00:48:16;;;;;;;2.67;2.47;;;;;;;18.23;51.06;102581.03;6124147;23;20444;-55
2023/05/19 00:50:43;;;;;;;3.83;2.80;;;;;;;18.23;51.04;102587.28;6124343;23;20455;-55
2023/05/19 00:53:08;;;;;;;3.40;2.63;;;;;;;18.23;50.92;102587.28;6124513;23;20421;-55
2023/05/19 00:55:36;;;;;;;3.55;2.60;;;;;;;18.22;51.03;102582.88;6125108;23;20006;-55
2023/05/19 00:58:03;;;;;;;3.05;2.60;;;;;;;18.22;51.06;102580.19;6124317;23;20010;-55
2023/05/19 01:00:29;;;;;;;7.13;3.10;;;;;;;18.21;50.98;102578.44;6124329;23;20505;-55
2023/05/19 01:02:55;;;;;;;4.22;2.92;;;;;;;18.22;50.85;102587.38;6124036;23;20085;-55
2023/05/19 01:05:21;;;;;;;4.28;2.30;;;;;;;18.21;50.78;102588.38;6123951;23;20009;-55
2023/05/19 01:07:50;;;;;;;3.80;2.47;;;;;;;18.19;50.95;102588.47;6124151;23;20021;-55
2023/05/19 01:10:16;;;;;;;2.65;2.42;;;;;;;18.20;50.83;102589.31;6099133;23;20014;-55
2023/05/19 01:12:42;;;;;;;3.45;2.33;;;;;;;18.20;50.78;102586.63;6124140;23;20065;-55
2023/05/19 01:15:08;;;;;;;4.22;2.55;;;;;;;18.19;50.68;102580.38;6124683;23;20006;-55
2023/05/19 01:18:10;;;;;;;3.38;2.28;;;;;;;18.22;50.97;102580.19;6124647;23;20456;-55
2023/05/19 01:20:46;;;;;;;2.72;2.53;;;;;;;18.21;50.84;102580.28;6063361;23;20010;-55
2023/05/19 01:23:36;;;;;;;2.63;2.20;;;;;;;18.21;50.73;102586.53;6123968;23;20002;-55
2023/05/19 01:26:40;;;;;;;3.10;2.20;;;;;;;18.19;50.93;102580.38;6124205;23;20104;-55
2023/05/19 01:29:18;;;;;;;2.70;2.42;;;;;;;18.17;50.78;102582.31;6124769;23;20064;-55
2023/05/19 01:31:46;;;;;;;2.90;2.60;;;;;;;18.16;50.54;102586.84;6123751;23;20009;-55
2023/05/19 01:34:14;;;;;;;2.72;2.20;;;;;;;18.17;50.60;102585.88;6123809;23;20013;-55
2023/05/19 01:36:43;;;;;;;2.70;2.30;;;;;;;18.17;50.54;102585.88;6124161;23;20037;-55
2023/05/19 01:39:09;;;;;;;4.85;2.50;;;;;;;18.15;50.35;102581.56;6124381;23;20013;-55
2023/05/19 01:41:35;;;;;;;2.40;2.03;;;;;;;18.15;50.36;102578.88;6124471;23;20010;-55
2023/05/19 01:44:01;;;;;;;2.30;2.08;;;;;;;18.14;50.56;102580.72;6123623;23;20006;-55
2023/05/19 01:46:26;;;;;;;2.35;2.15;;;;;;;18.13;50.41;102573.56;6124051;23;20021;-55
2023/05/19 01:48:52;;;;;;;2.00;1.90;;;;;;;18.14;50.29;102577.13;6123662;23;20013;-55
2023/05/19 01:51:17;;;;;;;3.63;2.33;;;;;;;18.12;50.32;102571.81;6123728;23;20329;-55
2023/05/19 01:53:43;;;;;;;1.77;1.67;;;;;;;18.13;50.33;102570.03;6123710;23;20337;-54
2023/05/19 01:56:08;;;;;;;4.22;2.85;;;;;;;18.13;50.43;102570.88;6124368;23;20006;-55
2023/05/19 01:58:43;;;;;;;6.88;2.30;;;;;;;18.12;50.38;102563.75;6123740;23;20020;-55
2023/05/19 02:01:27;;;;;;;3.63;2.03;;;;;;;18.13;50.63;102564.63;6124396;23;20006;-55
2023/05/19 02:04:23;;;;;;;1.90;1.80;;;;;;;18.12;50.27;102562.88;6123647;23;20105;-55
2023/05/19 02:07:19;;;;;;;1.90;1.80;;;;;;;18.13;50.43;102561.94;6097582;23;20048;-55
2023/05/19 02:09:52;;;;;;;2.75;2.33;;;;;;;18.11;50.36;102564.72;6122347;23;20006;-54
2023/05/19 02:12:30;;;;;;;2.75;2.13;;;;;;;18.10;50.19;102565.69;6123204;23;20448;-55
2023/05/19 02:15:03;;;;;;;3.10;2.33;;;;;;;18.09;50.12;102563.13;6123841;23;20049;-55
2023/05/19 02:17:34;;;;;;;3.35;2.45;;;;;;;18.08;50.16;102562.22;6123648;23;20029;-55
2023/05/19 02:20:01;;;;;;;5.40;2.22;;;;;;;18.07;50.08;102556.97;6123560;23;20006;-55
2023/05/19 02:22:26;;;;;;;1.88;1.60;;;;;;;18.08;50.14;102566.75;6123501;23;20002;-55
2023/05/19 02:24:51;;;;;;;2.15;1.98;;;;;;;18.06;50.36;102563.31;6123338;23;20002;-55
2023/05/19 02:27:17;;;;;;;3.05;2.13;;;;;;;18.07;50.09;102556.97;6123437;23;20045;-55
2023/05/19 02:29:42;;;;;;;6.53;2.45;;;;;;;18.05;50.16;102551.69;6123638;23;20013;-55
2023/05/19 02:32:09;;;;;;;4.93;2.17;;;;;;;18.05;50.09;102548.97;6124045;23;20089;-55
2023/05/19 02:34:35;;;;;;;2.55;1.92;;;;;;;18.04;50.17;102552.63;6123228;23;20489;-55
2023/05/19 02:37:00;;;;;;;3.85;2.53;;;;;;;18.05;50.08;102551.69;6123267;23;20006;-55
2023/05/19 02:39:28;;;;;;;2.60;1.85;;;;;;;18.06;50.08;102547.13;6123609;23;20015;-54
2023/05/19 02:41:53;;;;;;;2.38;1.90;;;;;;;18.04;50.21;102554.47;6123536;23;20016;-54
2023/05/19 02:44:18;;;;;;;2.40;2.17;;;;;;;18.04;50.02;102551.78;6123117;23;20010;-55
2023/05/19 02:46:44;;;;;;;2.25;1.95;;;;;;;18.03;50.05;102544.66;6123051;23;20021;-55
2023/05/19 02:49:10;;;;;;;2.55;2.15;;;;;;;18.04;49.92;102546.38;6123696;23;20056;-55
2023/05/19 02:51:35;;;;;;;2.42;2.00;;;;;;;18.03;50.01;102544.66;6123174;23;20032;-55
2023/05/19 02:54:00;;;;;;;2.30;1.67;;;;;;;18.02;50.04;102543.78;6123490;23;20815;-55
2023/05/19 02:56:27;;;;;;;2.25;1.88;;;;;;;18.02;50.06;102543.78;6123256;23;20306;-55
2023/05/19 02:58:52;;;;;;;3.05;1.70;;;;;;;18.01;49.87;102535.81;6123346;23;20120;-55
2023/05/19 03:01:20;;;;;;;4.15;2.40;;;;;;;18.01;50.17;102542.09;6123174;23;20429;-55
2023/05/19 03:03:45;;;;;;;2.80;2.03;;;;;;;17.98;49.88;102535.03;6122894;23;20084;-55
2023/05/19 03:06:11;;;;;;;2.38;1.75;;;;;;;18.00;49.91;102542.19;6124044;23;20045;-55
2023/05/19 03:08:37;;;;;;;4.57;1.73;;;;;;;17.99;49.90;102533.22;6123092;23;20010;-55
2023/05/19 03:11:02;;;;;;;2.60;1.95;;;;;;;17.98;49.68;102535.03;6122921;23;20826;-55
2023/05/19 03:13:28;;;;;;;3.15;1.90;;;;;;;17.98;49.88;102534.19;6123058;23;20014;-54
2023/05/19 03:15:56;;;;;;;2.38;1.75;;;;;;;17.98;49.69;102539.59;6123416;23;20433;-55
2023/05/19 03:18:23;;;;;;;1.95;1.80;;;;;;;17.98;49.70;102539.59;6122761;23;20020;-55
2023/05/19 03:20:48;;;;;;;2.08;1.70;;;;;;;17.97;49.56;102536.03;6097525;23;20006;-55
2023/05/19 03:23:14;;;;;;;2.75;2.20;;;;;;;17.97;49.73;102533.34;6123048;23;20060;-55
2023/05/19 03:25:39;;;;;;;2.70;2.00;;;;;;;17.96;49.47;102534.28;6123829;23;20013;-55
2023/05/19 03:28:05;;;;;;;1.90;1.60;;;;;;;17.94;49.66;102538.94;6097125;23;20049;-55
2023/05/19 03:30:30;;;;;;;1.90;1.80;;;;;;;17.95;49.49;102540.66;6122949;23;20333;-55
2023/05/19 03:32:55;;;;;;;2.17;1.98;;;;;;;17.94;49.58;102540.75;6122969;23;20425;-55
2023/05/19 03:35:21;;;;;;;5.18;1.90;;;;;;;17.92;49.70;102551.66;6122892;23;20361;-55
2023/05/19 03:37:46;;;;;;;1.65;1.55;;;;;;;17.92;49.78;102546.25;6122979;23;20016;-55
2023/05/19 03:40:12;;;;;;;3.50;1.90;;;;;;;17.92;49.51;102548.09;6124064;23;20018;-55
2023/05/19 03:42:37;;;;;;;2.70;1.70;;;;;;;17.91;49.58;102551.75;6123034;23;20006;-55
2023/05/19 03:45:03;;;;;;;3.58;2.05;;;;;;;17.91;49.49;102549.03;6122817;23;20002;-55
2023/05/19 03:47:28;;;;;;;1.80;1.60;;;;;;;17.91;49.43;102557.13;6123336;23;20017;-55
2023/05/19 03:49:53;;;;;;;2.92;1.85;;;;;;;17.90;49.20;102556.28;6122739;23;20488;-55
2023/05/19 03:52:19;;;;;;;2.25;1.60;;;;;;;17.90;49.29;102556.28;6122909;23;20013;-55
2023/05/19 03:54:44;;;;;;;3.92;2.38;;;;;;;17.89;49.24;102562.63;6123566;23;20002;-55
2023/05/19 03:57:10;;;;;;;2.40;2.03;;;;;;;17.88;49.11;102555.53;6123498;23;20018;-55
2023/05/19 03:59:36;;;;;;;2.42;1.73;;;;;;;17.88;49.25;102555.53;6122853;23;20006;-55
2023/05/19 04:02:02;;;;;;;2.65;1.85;;;;;;;17.87;49.16;102564.56;6123045;23;20018;-54
2023/05/19 04:04:27;;;;;;;2.05;1.63;;;;;;;17.87;49.10;102553.78;6122674;23;20081;-55
2023/05/19 04:06:53;;;;;;;1.80;1.70;;;;;;;17.86;49.28;102557.47;6097229;23;20068;-55
2023/05/19 04:09:18;;;;;;;1.65;1.50;;;;;;;17.86;49.39;102552.06;6122907;23;20311;-56
2023/05/19 04:11:44;;;;;;;3.05;1.50;;;;;;;17.86;49.31;102557.47;6123271;23;20025;-55
2023/05/19 04:14:10;;;;;;;2.58;1.80;;;;;;;17.85;49.75;102558.41;6122865;23;20014;-55
2023/05/19 04:16:35;;;;;;;2.00;1.45;;;;;;;17.85;48.98;102554.88;6122746;23;20048;-55
2023/05/19 04:19:01;;;;;;;3.03;1.65;;;;;;;17.86;49.31;102556.56;6122701;23;20052;-55
2023/05/19 04:21:26;;;;;;;1.83;1.60;;;;;;;17.84;49.12;102551.31;6096981;23;20006;-55
2023/05/19 04:23:52;;;;;;;2.85;1.75;;;;;;;17.83;49.05;102557.63;6122600;23;20006;-55
2023/05/19 04:26:20;;;;;;;3.13;1.67;;;;;;;17.83;49.15;102557.63;6122746;23;20084;-55
2023/05/19 04:28:47;;;;;;;2.67;1.67;;;;;;;17.83;48.83;102548.69;6123443;23;20088;-55
2023/05/19 04:31:15;;;;;;;1.65;1.55;;;;;;;17.82;48.93;102553.22;6123308;23;20064;-55
2023/05/19 04:33:40;;;;;;;2.17;1.80;;;;;;;17.82;49.12;102552.31;6122631;23;20057;-55
2023/05/19 04:36:09;;;;;;;2.10;1.60;;;;;;;17.82;48.90;102544.25;6123568;23;20009;-55
2023/05/19 04:38:38;;;;;;;3.10;2.10;;;;;;;17.82;49.07;102555.03;6124448;23;20010;-55
2023/05/19 04:41:10;;;;;;;1.55;1.35;;;;;;;17.81;49.17;102559.56;6124396;23;20010;-55
2023/05/19 04:43:40;;;;;;;1.40;1.30;;;;;;;17.79;49.08;102553.41;6124344;23;20476;-55
2023/05/19 04:46:12;;;;;;;1.98;1.60;;;;;;;17.79;48.85;102550.72;6124456;23;20014;-55
2023/05/19 04:48:38;;;;;;;2.20;1.42;;;;;;;17.79;48.89;102554.25;6124210;23;20006;-55
2023/05/19 04:51:05;;;;;;;2.67;1.58;;;;;;;17.78;48.83;102548.97;6124636;23;20006;-55
2023/05/19 04:53:30;;;;;;;3.22;1.98;;;;;;;17.78;48.71;102562.44;6124263;23;20005;-55
2023/05/19 04:55:57;;;;;;;1.73;1.63;;;;;;;17.78;48.76;102551.66;6124591;23;20017;-55
2023/05/19 04:58:24;;;;;;;1.83;1.45;;;;;;;17.79;48.72;102556.09;6124116;23;20008;-55
2023/05/19 05:00:51;;;;;;;3.72;1.85;;;;;;;17.76;48.74;102549.09;6124433;23;20129;-55
2023/05/19 05:03:16;;;;;;;1.70;1.60;;;;;;;17.77;48.79;102550.81;6124604;23;20036;-55
2023/05/19 05:05:42;;;;;;;2.85;1.70;;;;;;;17.76;48.91;102551.78;6098137;23;20035;-55
2023/05/19 05:08:11;;;;;;;1.63;1.52;;;;;;;17.77;48.71;102558.03;6124215;23;20014;-55
2023/05/19 05:10:36;;;;;;;2.65;1.85;;;;;;;17.76;48.65;102561.69;6123965;23;20014;-55
2023/05/19 05:13:02;;;;;;;2.00;1.60;;;;;;;17.76;48.78;102562.56;6124327;23;20022;-55
2023/05/19 05:15:28;;;;;;;2.35;1.60;;;;;;;17.77;48.73;102558.03;6124041;23;20302;-55
2023/05/19 05:17:54;;;;;;;1.75;1.52;;;;;;;17.76;48.99;102562.56;6124185;23;20010;-55
2023/05/19 05:20:20;;;;;;;1.63;1.52;;;;;;;17.75;48.78;102563.53;6124264;23;20016;-55
2023/05/19 05:22:46;;;;;;;1.75;1.60;;;;;;;17.75;48.75;102559.97;6124741;23;20076;-55
2023/05/19 05:25:12;;;;;;;1.52;1.42;;;;;;;17.75;48.56;102562.66;6124134;23;20041;-55
2023/05/19 05:27:37;;;;;;;2.83;1.52;;;;;;;17.74;48.62;102559.13;6124368;23;20018;-55
2023/05/19 05:30:03;;;;;;;3.30;1.55;;;;;;;17.74;48.80;102569.91;6123940;23;20137;-55
2023/05/19 05:32:29;;;;;;;2.05;1.60;;;;;;;17.75;48.73;102562.66;6124037;23;20006;-55
2023/05/19 05:34:54;;;;;;;2.05;1.67;;;;;;;17.74;48.76;102569.00;6123790;23;20002;-55
2023/05/19 05:37:19;;;;;;;3.08;1.63;;;;;;;17.75;48.90;102570.75;6123937;23;20361;-55
2023/05/19 05:39:45;;;;;;;2.00;1.50;;;;;;;17.74;48.73;102567.19;6124572;23;20017;-55
2023/05/19 05:42:11;;;;;;;2.55;1.40;;;;;;;17.74;48.72;102571.69;6123872;23;20006;-55
2023/05/19 05:44:36;;;;;;;2.85;1.63;;;;;;;17.73;48.62;102567.28;6097722;23;20445;-55
2023/05/19 05:47:02;;;;;;;2.80;1.80;;;;;;;17.73;48.76;102567.28;6123226;23;20122;-55
2023/05/19 05:49:28;;;;;;;1.95;1.40;;;;;;;17.73;48.82;102578.06;6123674;23;20132;-55
2023/05/19 05:51:54;;;;;;;2.78;1.50;;;;;;;17.73;48.64;102564.59;6124041;23;20414;-55
2023/05/19 05:54:21;;;;;;;2.05;1.30;;;;;;;17.72;48.93;102561.03;6124626;23;20038;-55
2023/05/19 05:56:47;;;;;;;2.15;1.40;;;;;;;17.72;48.89;102565.56;6124334;23;20014;-55
2023/05/19 05:59:14;;;;;;;1.60;1.33;;;;;;;17.72;48.57;102568.25;6123649;23;20076;-55
2023/05/19 06:01:40;;;;;;;2.33;1.42;;;;;;;17.73;48.67;102570.00;6097786;23;20005;-55
2023/05/19 06:04:06;;;;;;;2.90;1.50;;;;;;;17.71;48.84;102561.16;6123364;23;20006;-55
2023/05/19 06:06:31;;;;;;;2.80;1.55;;;;;;;17.72;48.21;102570.94;6123762;23;20447;-55
2023/05/19 06:08:57;;;;;;;1.50;1.38;;;;;;;17.72;48.54;102570.94;6123554;23;20036;-55
2023/05/19 06:11:23;;;;;;;2.70;1.30;;;;;;;17.71;48.80;102567.41;6097100;23;20045;-55
2023/05/19 06:13:49;;;;;;;2.97;1.48;;;;;;;17.71;48.87;102575.47;6124280;23;20021;-54
2023/05/19 06:16:14;;;;;;;2.50;1.67;;;;;;;17.71;48.76;102578.16;6123376;23;20005;-54
2023/05/19 06:18:40;;;;;;;1.45;1.35;;;;;;;17.71;48.50;102570.09;6123238;23;20013;-55
2023/05/19 06:21:05;;;;;;;2.47;1.48;;;;;;;17.71;48.65;102577.31;6123344;23;20013;-55
2023/05/19 06:23:31;;;;;;;2.22;1.42;;;;;;;17.71;48.78;102571.94;6096824;23;20037;-55
2023/05/19 06:25:56;;;;;;;3.70;1.50;;;;;;;17.72;48.70;102581.72;6123254;23;20011;-55
2023/05/19 06:28:22;;;;;;;4.10;1.30;;;;;;;17.72;48.55;102570.94;6122846;23;20318;-55
2023/05/19 06:30:47;;;;;;;2.90;1.40;;;;;;;17.71;48.81;102569.22;6123817;23;20013;-55
2023/05/19 06:33:12;;;;;;;2.55;1.85;;;;;;;17.71;48.77;102574.63;6122631;23;20037;-55
2023/05/19 06:35:38;;;;;;;1.73;1.35;;;;;;;17.72;48.93;102576.34;6123176;23;20013;-55
2023/05/19 06:38:03;;;;;;;1.05;0.90;;;;;;;17.71;48.84;102583.56;6123144;23;20085;-55
2023/05/19 06:40:29;;;;;;;1.73;1.63;;;;;;;17.71;49.03;102580.00;6122895;23;20427;-55
2023/05/19 06:42:54;;;;;;;2.03;1.48;;;;;;;17.71;48.74;102580.00;6123287;23;20035;-55
2023/05/19 06:45:21;;;;;;;1.70;1.27;;;;;;;17.70;48.95;102579.13;6123477;23;20328;-55
2023/05/19 06:47:47;;;;;;;1.40;1.30;;;;;;;17.70;49.02;102575.56;6122964;23;20017;-53
2023/05/19 06:50:12;;;;;;;1.42;1.33;;;;;;;17.70;49.01;102576.44;6123176;23;20539;-53
2023/05/19 06:52:38;;;;;;;2.42;1.55;;;;;;;17.70;49.04;102573.72;6122883;23;20010;-54
2023/05/19 06:55:04;;;;;;;1.40;1.30;;;;;;;17.70;48.91;102572.88;6122799;23;20009;-53
2023/05/19 06:57:29;;;;;;;1.38;1.27;;;;;;;17.71;49.04;102580.00;6122947;23;20006;-54
2023/05/19 06:59:55;;;;;;;1.40;1.30;;;;;;;17.70;49.10;102567.50;6123102;23;20036;-54
2023/05/19 07:02:20;;;;;;;2.88;1.25;;;;;;;17.70;48.95;102572.88;6123858;23;20006;-54
2023/05/19 07:04:46;;;;;;;1.83;1.23;;;;;;;17.71;48.86;102569.22;6122675;23;20002;-53
2023/05/19 07:07:11;;;;;;;1.50;1.13;;;;;;;17.70;49.10;102570.19;6122716;23;20623;-53
2023/05/19 07:09:37;;;;;;;1.17;1.08;;;;;;;17.70;48.89;102570.19;6123053;23;20416;-50
2023/05/19 07:12:02;;;;;;;1.52;1.20;;;;;;;17.71;49.23;102571.94;6122921;23;20017;-53
2023/05/19 07:14:28;;;;;;;1.65;1.38;;;;;;;17.70;49.16;102567.50;6122855;23;20014;-53
2023/05/19 07:16:53;;;;;;;2.33;1.42;;;;;;;17.71;48.94;102574.63;6123645;23;20358;-53
2023/05/19 07:19:18;;;;;;;2.50;1.40;;;;;;;17.72;49.14;102573.63;6123155;23;20041;-53
2023/05/19 07:21:45;;;;;;;2.15;1.52;;;;;;;17.71;49.21;102574.63;6122352;23;20010;-53
2023/05/19 07:24:11;;;;;;;1.77;1.30;;;;;;;17.72;49.19;102581.72;6122110;23;20005;-53
2023/05/19 07:26:36;;;;;;;1.92;1.67;;;;;;;17.70;49.40;102579.13;6122165;23;20014;-53
2023/05/19 07:29:02;;;;;;;2.08;1.30;;;;;;;17.71;49.43;102574.63;6122751;23;20048;-54
2023/05/19 07:31:27;;;;;;;2.40;1.38;;;;;;;17.70;49.26;102573.72;6097027;23;20005;-54
2023/05/19 07:33:53;;;;;;;1.75;1.33;;;;;;;17.72;49.16;102576.34;6123469;23;20057;-54
2023/05/19 07:36:18;;;;;;;3.42;1.50;;;;;;;17.71;49.21;102574.63;6123021;23;20328;-53
2023/05/19 07:38:45;;;;;;;1.42;1.33;;;;;;;17.71;49.29;102575.47;6122841;23;20337;-52
2023/05/19 07:41:11;;;;;;;1.25;1.15;;;;;;;17.71;49.42;102575.47;6122877;23;20010;-54
2023/05/19 07:43:36;;;;;;;1.85;1.23;;;;;;;17.72;49.16;102573.63;6122919;23;20013;-53
2023/05/19 07:46:02;;;;;;;1.58;1.02;;;;;;;17.72;49.40;102568.25;6122887;23;20014;-54
2023/05/19 07:48:28;;;;;;;2.13;1.20;;;;;;;17.73;49.19;102573.53;6096843;23;20010;-53
2023/05/19 07:50:53;;;;;;;1.00;1.00;;;;;;;17.73;49.32;102567.28;6123775;23;20089;-53
2023/05/19 07:53:21;;;;;;;2.28;1.33;;;;;;;17.72;49.20;102565.56;6122759;23;20438;-52
2023/05/19 07:55:47;;;;;;;1.00;1.00;;;;;;;17.72;49.28;102571.81;6123144;23;20002;-51
2023/05/19 07:58:12;;;;;;;1.88;1.40;;;;;;;17.72;49.45;102562.88;6122868;23;20014;-53
2023/05/19 08:00:38;;;;;;;1.40;1.10;;;;;;;17.73;49.64;102561.91;6122739;23;20092;-53
2023/05/19 08:03:03;;;;;;;1.75;1.30;;;;;;;17.73;49.50;102561.91;6122710;23;20006;-53
2023/05/19 08:05:28;;;;;;;1.80;1.23;;;;;;;17.73;49.56;102561.91;6122593;23;20012;-53
2023/05/19 08:07:55;;;;;;;2.45;1.27;;;;;;;17.73;49.63;102560.06;6123730;23;20014;-53
2023/05/19 08:10:21;;;;;;;1.50;1.38;;;;;;;17.73;49.56;102552.00;6122977;23;20013;-53
2023/05/19 08:12:46;;;;;;;1.45;1.08;;;;;;;17.75;49.68;102551.91;6124746;23;20077;-53
2023/05/19 08:15:11;;;;;;;2.33;1.25;;;;;;;17.75;49.50;102554.59;6124342;23;20314;-53
2023/05/19 08:17:37;;;;;;;4.00;1.45;;;;;;;17.74;49.75;102553.72;6122973;23;20006;-52
2023/05/19 08:20:07;;;;;;;2.63;1.25;;;;;;;17.73;49.70;102549.28;6123172;23;20345;-52
2023/05/19 08:22:33;;;;;;;1.17;1.07;;;;;;;17.75;49.74;102549.19;6123017;23;20013;-53
2023/05/19 08:24:58;;;;;;;2.65;1.30;;;;;;;17.74;49.78;102548.34;6122975;23;20320;-53
2023/05/19 08:27:24;;;;;;;3.05;1.42;;;;;;;17.74;49.70;102537.56;6123559;23;20392;-53
2023/05/19 08:29:49;;;;;;;2.05;1.63;;;;;;;17.75;49.95;102543.81;6122912;23;20010;-52
2023/05/19 08:32:14;;;;;;;1.48;1.30;;;;;;;17.74;49.69;102536.69;6124350;23;20015;-54
2023/05/19 08:34:40;;;;;;;1.20;1.10;;;;;;;17.76;49.75;102540.13;6124624;23;20114;-53
2023/05/19 08:37:06;;;;;;;1.85;1.20;;;;;;;17.75;49.70;102531.19;6124420;23;20006;-53
2023/05/19 08:39:33;;;;;;;2.25;1.10;;;;;;;17.76;49.89;102523.97;6124723;23;20307;-53
2023/05/19 08:41:58;;;;;;;3.10;1.13;;;;;;;17.77;49.97;102525.72;6124658;23;20010;-54
2023/05/19 08:44:24;;;;;;;1.45;1.15;;;;;;;17.77;49.89;102528.41;6125067;23;20432;-53
2023/05/19 08:46:51;;;;;;;2.30;1.10;;;;;;;17.77;49.80;102521.19;6124578;23;20037;-53
2023/05/19 08:49:25;;;;;;;1.45;1.00;;;;;;;17.78;50.05;102522.03;6124355;23;20310;-53
2023/05/19 08:52:24;;;;;;;2.22;1.17;;;;;;;17.80;49.85;102525.50;6124417;23;20061;-53
2023/05/19 08:54:54;;;;;;;1.80;1.13;;;;;;;17.78;50.06;102514.84;6124547;23;20524;-55
2023/05/19 08:57:23;;;;;;;2.73;1.20;;;;;;;17.80;50.08;102512.03;6124533;23;20006;-55
2023/05/19 08:59:50;;;;;;;2.47;1.23;;;;;;;17.79;49.96;102507.59;6124818;23;20425;-55
2023/05/19 09:02:17;;;;;;;1.67;1.10;;;;;;;17.79;50.08;102513.00;6124374;23;20013;-53
2023/05/19 09:04:44;;;;;;;2.10;1.08;;;;;;;17.81;50.23;102521.84;6123988;23;20101;-53
2023/05/19 09:07:12;;;;;;;1.70;1.13;;;;;;;17.83;50.37;102508.25;6124774;23;20018;-52
2023/05/19 09:09:42;;;;;;;1.83;1.10;;;;;;;17.83;50.33;102513.66;6124539;23;20380;-53
2023/05/19 09:12:10;;;;;;;1.88;1.23;;;;;;;17.82;50.24;102507.41;6124098;23;20100;-52
2023/05/19 09:14:36;;;;;;;3.17;1.10;;;;;;;17.84;50.54;102504.59;6124119;23;20085;-53
2023/05/19 09:17:02;;;;;;;2.28;1.45;;;;;;;17.84;50.28;102496.50;6124099;23;20025;-53
2023/05/19 09:19:28;;;;;;;1.92;1.20;;;;;;;17.84;50.42;102500.13;6124640;23;20013;-53
2023/05/19 09:21:59;;;;;;;1.40;1.20;;;;;;;17.84;50.30;102494.72;6124070;23;20009;-53
2023/05/19 09:24:25;;;;;;;3.83;1.20;;;;;;;17.86;50.48;102490.09;6124433;23;20002;-53
2023/05/19 09:26:54;;;;;;;2.15;1.10;;;;;;;17.85;50.46;102491.03;6098029;23;20017;-53
2023/05/19 09:29:19;;;;;;;2.00;1.30;;;;;;;17.86;50.52;102486.50;6124278;23;20505;-53
2023/05/19 09:31:49;;;;;;;5.20;1.20;;;;;;;17.86;50.54;102490.09;6123873;23;20030;-53
2023/05/19 09:34:15;;;;;;;3.53;1.20;;;;;;;17.86;50.46;102484.69;6123866;23;20006;-53
2023/05/19 09:36:41;;;;;;;1.67;0.90;;;;;;;17.87;50.46;102482.88;6124108;23;20069;-53
2023/05/19 09:39:17;;;;;;;2.58;1.17;;;;;;;17.86;50.58;102484.69;6124064;23;20040;-53
2023/05/19 09:41:43;;;;;;;4.53;1.30;;;;;;;17.86;50.67;102481.13;6123796;23;19998;-53
2023/05/19 09:44:29;;;;;;;1.20;1.10;;;;;;;17.88;50.45;102480.06;6123537;23;20002;-54
2023/05/19 09:46:55;;;;;;;1.25;1.08;;;;;;;17.88;50.89;102479.22;6123635;23;20010;-52
2023/05/19 09:49:21;;;;;;;2.63;1.20;;;;;;;17.87;50.52;102475.63;6123410;23;20013;-53
2023/05/19 09:51:56;;;;;;;2.13;1.20;;;;;;;17.88;50.70;102490.84;6123814;23;20010;-53
2023/05/19 09:54:22;;;;;;;2.17;1.00;;;;;;;17.88;50.67;102487.28;6123829;23;20006;-53
2023/05/19 09:57:07;;;;;;;2.35;1.13;;;;;;;17.90;50.83;102488.06;6123763;23;20092;-54
2023/05/19 09:59:33;;;;;;;2.22;1.15;;;;;;;17.88;50.61;102484.59;6123515;23;20456;-53
2023/05/19 10:02:00;;;;;;;2.15;1.00;;;;;;;17.89;50.67;102475.53;6123829;23;20020;-53
2023/05/19 10:04:27;;;;;;;1.33;1.00;;;;;;;17.88;50.58;102480.06;6123234;23;20002;-53
2023/05/19 10:06:54;;;;;;;1.10;0.98;;;;;;;17.87;50.83;102481.03;6123468;23;20010;-53
2023/05/19 10:09:23;;;;;;;2.38;1.20;;;;;;;17.87;50.81;102483.72;6123258;23;20014;-54
2023/05/19 10:11:56;;;;;;;2.67;1.23;;;;;;;17.88;50.88;102477.38;6123392;23;20346;-52
2023/05/19 10:14:24;;;;;;;1.25;1.10;;;;;;;17.89;50.88;102476.38;6123847;23;20329;-53
2023/05/19 10:16:51;;;;;;;2.80;1.00;;;;;;;17.89;50.98;102479.09;6123779;23;20010;-53
2023/05/19 10:19:28;;;;;;;1.08;0.95;;;;;;;17.90;50.87;102491.59;6123563;23;20451;-53
2023/05/19 10:21:54;;;;;;;1.67;1.15;;;;;;;17.90;50.97;102483.50;6123742;23;20048;-53
2023/05/19 10:24:20;;;;;;;1.48;0.93;;;;;;;17.91;50.95;102478.97;6123641;23;20017;-53
2023/05/19 10:26:55;;;;;;;2.10;1.10;;;;;;;17.91;50.87;102479.84;6123435;23;20337;-53
2023/05/19 10:29:26;;;;;;;2.25;1.00;;;;;;;17.90;51.01;102480.81;6123415;23;20006;-53
2023/05/19 10:31:53;;;;;;;1.13;1.02;;;;;;;17.91;50.88;102474.44;6123662;23;20025;-53
2023/05/19 10:34:20;;;;;;;2.30;1.40;;;;;;;17.91;51.01;102479.84;6123028;23;20733;-53
2023/05/19 10:37:10;;;;;;;1.50;1.00;;;;;;;17.92;51.25;102470.78;6123409;23;20306;-53
2023/05/19 10:39:40;;;;;;;2.50;1.35;;;;;;;17.93;51.01;102477.03;6123621;23;20010;-53
2023/05/19 10:42:18;;;;;;;2.03;0.85;;;;;;;17.95;51.18;102467.91;6123542;23;20006;-53
2023/05/19 10:45:02;;;;;;;1.38;0.90;;;;;;;17.95;51.18;102451.72;6122736;23;20013;-51
2023/05/19 10:47:28;;;;;;;2.17;1.10;;;;;;;17.95;51.26;102457.13;6123354;23;20010;-52
2023/05/19 10:49:54;;;;;;;1.23;0.93;;;;;;;17.95;51.33;102448.16;6122669;23;20529;-50
2023/05/19 10:52:21;;;;;;;1.20;1.10;;;;;;;17.94;51.07;102458.06;6123538;23;20010;-52
2023/05/19 10:54:47;;;;;;;1.33;0.93;;;;;;;17.96;51.21;102444.50;6123195;23;20013;-52
2023/05/19 10:57:16;;;;;;;1.00;1.00;;;;;;;17.96;51.33;102449.91;6122750;23;20329;-54
2023/05/19 10:59:43;;;;;;;3.15;1.02;;;;;;;17.97;51.11;102451.59;6122778;23;20010;-52
2023/05/19 11:02:09;;;;;;;1.15;0.80;;;;;;;17.97;51.42;102446.22;6122708;23;20361;-53
2023/05/19 11:04:52;;;;;;;1.30;1.08;;;;;;;17.97;51.29;102447.09;6122632;23;20137;-53
2023/05/19 11:07:23;;;;;;;1.17;1.00;;;;;;;17.97;51.30;102447.09;6122864;23;20429;-54
2023/05/19 11:09:50;;;;;;;2.78;1.13;;;;;;;17.98;51.38;102448.81;6122922;23;20428;-53
2023/05/19 11:12:20;;;;;;;1.52;1.00;;;;;;;17.98;51.26;102443.41;6096848;23;20100;-53
2023/05/19 11:14:46;;;;;;;1.25;0.80;;;;;;;17.99;51.44;102441.56;6122678;23;20005;-50
2023/05/19 11:17:14;;;;;;;1.88;1.23;;;;;;;17.99;51.42;102446.97;6122459;23;20010;-53
2023/05/19 11:19:52;;;;;;;2.08;1.00;;;;;;;18.01;51.34;102446.88;6122777;23;20051;-51
2023/05/19 11:22:17;;;;;;;1.35;0.88;;;;;;;18.01;51.39;102445.06;6122660;23;20006;-53
2023/05/19 11:24:49;;;;;;;1.38;1.05;;;;;;;18.01;51.35;102452.25;6122630;23;20014;-53
2023/05/19 11:27:26;;;;;;;2.60;1.13;;;;;;;18.01;51.63;102439.66;6122762;23;20012;-52